sensor_id;sensor_type;location;lat;lon;timestamp;temperature;humidity
49777;DHT22;35673;51.482;7.436;2023-07-22T14:19:11;32.30;50.70
49777;DHT22;35673;51.482;7.436;2023-07-22T14:21:36;31.10;48.00
49777;DHT22;35673;51.482;7.436;2023-07-22T14:24:02;30.70;48.30
49777;DHT22;35673;51.482;7.436;2023-07-22T14:26:28;31.00;46.60
49777;DHT22;35673;51.482;7.436;2023-07-22T14:28:53;31.80;45.60
49777;DHT22;35673;51.482;7.436;2023-07-22T15:19:59;36.80;39.40
49777;DHT22;35673;51.482;7.436;2023-07-22T15:22:24;36.80;40.20
49777;DHT22;35673;51.482;7.436;2023-07-22T15:24:50;35.80;38.70
49777;DHT22;35673;51.482;7.436;2023-07-22T15:27:15;35.50;38.70
49777;DHT22;35673;51.482;7.436;2023-07-22T15:29:41;34.10;39.50
49777;DHT22;35673;51.482;7.436;2023-07-22T15:32:06;32.90;40.40
49777;DHT22;35673;51.482;7.436;2023-07-22T15:34:32;31.80;41.50
49777;DHT22;35673;51.482;7.436;2023-07-22T15:36:58;31.10;41.80
49777;DHT22;35673;51.482;7.436;2023-07-22T15:39:24;29.80;41.80
49777;DHT22;35673;51.482;7.436;2023-07-22T15:41:50;29.30;42.30
49777;DHT22;35673;51.482;7.436;2023-07-22T15:44:15;28.40;42.70
49777;DHT22;35673;51.482;7.436;2023-07-22T15:46:41;28.00;43.00
49777;DHT22;35673;51.482;7.436;2023-07-22T15:49:07;29.00;43.20
49777;DHT22;35673;51.482;7.436;2023-07-22T15:51:32;30.70;42.60
49777;DHT22;35673;51.482;7.436;2023-07-22T15:53:58;31.30;40.50
49777;DHT22;35673;51.482;7.436;2023-07-22T15:56:23;31.70;40.70
49777;DHT22;35673;51.482;7.436;2023-07-22T15:58:49;32.20;40.70
49777;DHT22;35673;51.482;7.436;2023-07-22T16:01:14;32.20;40.60
49777;DHT22;35673;51.482;7.436;2023-07-22T16:03:40;31.70;40.70
49777;DHT22;35673;51.482;7.436;2023-07-22T16:06:05;31.00;41.80
49777;DHT22;35673;51.482;7.436;2023-07-22T16:08:31;29.70;42.20
49777;DHT22;35673;51.482;7.436;2023-07-22T16:10:57;30.50;42.80
49777;DHT22;35673;51.482;7.436;2023-07-22T16:13:23;31.00;42.50
49777;DHT22;35673;51.482;7.436;2023-07-22T16:15:48;30.80;41.80
49777;DHT22;35673;51.482;7.436;2023-07-22T16:18:14;29.90;42.80
49777;DHT22;35673;51.482;7.436;2023-07-22T16:20:39;29.40;43.30
49777;DHT22;35673;51.482;7.436;2023-07-22T16:23:05;29.40;43.50
49777;DHT22;35673;51.482;7.436;2023-07-22T16:25:30;29.30;43.50
49777;DHT22;35673;51.482;7.436;2023-07-22T16:27:56;28.70;43.90
49777;DHT22;35673;51.482;7.436;2023-07-22T16:30:21;28.60;44.30
49777;DHT22;35673;51.482;7.436;2023-07-22T16:32:47;28.70;44.30
49777;DHT22;35673;51.482;7.436;2023-07-22T16:35:12;29.00;43.90
49777;DHT22;35673;51.482;7.436;2023-07-22T16:37:38;28.00;44.80
49777;DHT22;35673;51.482;7.436;2023-07-22T16:40:04;27.60;45.00
49777;DHT22;35673;51.482;7.436;2023-07-22T16:42:30;27.10;45.40
49777;DHT22;35673;51.482;7.436;2023-07-22T16:44:55;26.60;45.70
49777;DHT22;35673;51.482;7.436;2023-07-22T16:47:21;26.10;46.10
49777;DHT22;35673;51.482;7.436;2023-07-22T16:49:46;26.00;46.30
49777;DHT22;35673;51.482;7.436;2023-07-22T16:52:11;25.60;46.50
49777;DHT22;35673;51.482;7.436;2023-07-22T16:54:37;25.20;47.50
49777;DHT22;35673;51.482;7.436;2023-07-22T16:57:02;25.10;47.50
49777;DHT22;35673;51.482;7.436;2023-07-22T16:59:28;24.90;48.10
49777;DHT22;35673;51.482;7.436;2023-07-22T17:01:54;25.00;48.40
49777;DHT22;35673;51.482;7.436;2023-07-22T17:04:19;25.00;48.30
49777;DHT22;35673;51.482;7.436;2023-07-22T17:06:44;24.80;48.10
49777;DHT22;35673;51.482;7.436;2023-07-22T17:09:10;24.60;48.50
49777;DHT22;35673;51.482;7.436;2023-07-22T17:11:39;24.60;48.60
49777;DHT22;35673;51.482;7.436;2023-07-22T17:14:04;24.50;48.50
49777;DHT22;35673;51.482;7.436;2023-07-22T17:16:30;24.40;49.00
49777;DHT22;35673;51.482;7.436;2023-07-22T17:18:57;24.30;49.30
49777;DHT22;35673;51.482;7.436;2023-07-22T17:21:22;24.30;48.90
49777;DHT22;35673;51.482;7.436;2023-07-22T17:23:48;24.20;49.30
49777;DHT22;35673;51.482;7.436;2023-07-22T17:26:13;24.20;49.50
49777;DHT22;35673;51.482;7.436;2023-07-22T17:28:39;24.20;49.80
49777;DHT22;35673;51.482;7.436;2023-07-22T17:31:04;24.10;50.00
49777;DHT22;35673;51.482;7.436;2023-07-22T17:33:30;24.10;50.50
49777;DHT22;35673;51.482;7.436;2023-07-22T17:35:55;23.90;50.70
49777;DHT22;35673;51.482;7.436;2023-07-22T17:38:21;23.90;50.30
49777;DHT22;35673;51.482;7.436;2023-07-22T17:40:49;23.90;50.80
49777;DHT22;35673;51.482;7.436;2023-07-22T17:43:16;23.80;52.10
49777;DHT22;35673;51.482;7.436;2023-07-22T17:45:41;23.80;51.70
49777;DHT22;35673;51.482;7.436;2023-07-22T17:48:07;23.60;51.20
49777;DHT22;35673;51.482;7.436;2023-07-22T17:50:32;23.60;52.00
49777;DHT22;35673;51.482;7.436;2023-07-22T17:52:57;23.60;51.60
49777;DHT22;35673;51.482;7.436;2023-07-22T17:55:23;23.40;51.70
49777;DHT22;35673;51.482;7.436;2023-07-22T17:57:48;23.40;51.30
49777;DHT22;35673;51.482;7.436;2023-07-22T18:00:14;23.30;52.20
49777;DHT22;35673;51.482;7.436;2023-07-22T18:02:39;23.50;52.10
49777;DHT22;35673;51.482;7.436;2023-07-22T18:05:05;23.40;51.70
49777;DHT22;35673;51.482;7.436;2023-07-22T18:07:31;23.30;52.10
49777;DHT22;35673;51.482;7.436;2023-07-22T18:09:57;23.30;52.70
49777;DHT22;35673;51.482;7.436;2023-07-22T18:12:22;23.30;51.70
49777;DHT22;35673;51.482;7.436;2023-07-22T18:14:48;23.20;51.90
49777;DHT22;35673;51.482;7.436;2023-07-22T18:17:13;23.00;52.50
49777;DHT22;35673;51.482;7.436;2023-07-22T18:19:39;23.00;52.40
49777;DHT22;35673;51.482;7.436;2023-07-22T18:22:04;23.00;54.30
49777;DHT22;35673;51.482;7.436;2023-07-22T18:24:30;22.90;53.20
49777;DHT22;35673;51.482;7.436;2023-07-22T18:26:56;22.70;53.70
49777;DHT22;35673;51.482;7.436;2023-07-22T18:29:21;22.70;54.00
49777;DHT22;35673;51.482;7.436;2023-07-22T18:31:47;22.60;55.10
49777;DHT22;35673;51.482;7.436;2023-07-22T18:34:12;22.50;53.90
49777;DHT22;35673;51.482;7.436;2023-07-22T18:36:38;22.60;54.50
49777;DHT22;35673;51.482;7.436;2023-07-22T18:39:03;22.60;54.00
49777;DHT22;35673;51.482;7.436;2023-07-22T18:41:29;22.30;54.30
49777;DHT22;35673;51.482;7.436;2023-07-22T18:43:55;22.30;55.20
49777;DHT22;35673;51.482;7.436;2023-07-22T18:46:20;22.30;55.80
49777;DHT22;35673;51.482;7.436;2023-07-22T18:48:46;22.40;56.70
49777;DHT22;35673;51.482;7.436;2023-07-22T18:51:14;22.20;55.90
49777;DHT22;35673;51.482;7.436;2023-07-22T18:53:39;22.10;57.40
49777;DHT22;35673;51.482;7.436;2023-07-22T18:56:05;22.30;56.60
49777;DHT22;35673;51.482;7.436;2023-07-22T18:58:30;22.10;56.60
49777;DHT22;35673;51.482;7.436;2023-07-22T19:00:56;22.20;56.60
49777;DHT22;35673;51.482;7.436;2023-07-22T19:03:21;22.20;56.70
49777;DHT22;35673;51.482;7.436;2023-07-22T19:05:52;22.10;58.20
49777;DHT22;35673;51.482;7.436;2023-07-22T19:08:24;21.90;55.90
49777;DHT22;35673;51.482;7.436;2023-07-22T19:10:50;22.10;56.90
49777;DHT22;35673;51.482;7.436;2023-07-22T19:13:16;22.00;58.30
49777;DHT22;35673;51.482;7.436;2023-07-22T19:15:44;22.00;58.80
49777;DHT22;35673;51.482;7.436;2023-07-22T19:18:10;21.90;60.70
49777;DHT22;35673;51.482;7.436;2023-07-22T19:20:35;21.80;59.60
49777;DHT22;35673;51.482;7.436;2023-07-22T19:23:01;21.70;58.50
49777;DHT22;35673;51.482;7.436;2023-07-22T19:25:28;21.80;60.20
49777;DHT22;35673;51.482;7.436;2023-07-22T19:27:54;21.70;61.00
49777;DHT22;35673;51.482;7.436;2023-07-22T19:30:20;21.60;61.30
49777;DHT22;35673;51.482;7.436;2023-07-22T19:32:45;21.60;60.30
49777;DHT22;35673;51.482;7.436;2023-07-22T19:35:11;21.70;60.90
49777;DHT22;35673;51.482;7.436;2023-07-22T19:37:36;21.80;59.60
49777;DHT22;35673;51.482;7.436;2023-07-22T19:40:02;21.80;59.50
49777;DHT22;35673;51.482;7.436;2023-07-22T19:45:30;21.60;59.90
49777;DHT22;35673;51.482;7.436;2023-07-22T19:47:57;21.60;60.30
49777;DHT22;35673;51.482;7.436;2023-07-22T19:50:23;21.60;60.90
49777;DHT22;35673;51.482;7.436;2023-07-22T19:52:48;21.40;61.90
49777;DHT22;35673;51.482;7.436;2023-07-22T19:55:14;21.60;61.60
49777;DHT22;35673;51.482;7.436;2023-07-22T19:57:39;21.60;61.00
49777;DHT22;35673;51.482;7.436;2023-07-22T20:00:05;21.40;60.70
49777;DHT22;35673;51.482;7.436;2023-07-22T20:02:31;21.40;58.10
49777;DHT22;35673;51.482;7.436;2023-07-22T20:04:56;21.50;57.90
49777;DHT22;35673;51.482;7.436;2023-07-22T20:07:21;21.50;59.00
49777;DHT22;35673;51.482;7.436;2023-07-22T20:09:47;21.40;59.40
49777;DHT22;35673;51.482;7.436;2023-07-22T20:12:12;21.30;59.80
49777;DHT22;35673;51.482;7.436;2023-07-22T20:14:38;21.30;60.90
49777;DHT22;35673;51.482;7.436;2023-07-22T20:17:03;21.30;61.10
49777;DHT22;35673;51.482;7.436;2023-07-22T20:19:29;21.30;61.70
49777;DHT22;35673;51.482;7.436;2023-07-22T20:21:56;21.40;60.20
49777;DHT22;35673;51.482;7.436;2023-07-22T20:24:21;21.40;60.30
49777;DHT22;35673;51.482;7.436;2023-07-22T20:26:46;21.10;61.60
49777;DHT22;35673;51.482;7.436;2023-07-22T20:29:12;21.20;63.20
49777;DHT22;35673;51.482;7.436;2023-07-22T20:31:37;21.10;64.20
49777;DHT22;35673;51.482;7.436;2023-07-22T20:34:03;21.00;62.60
49777;DHT22;35673;51.482;7.436;2023-07-22T20:36:28;21.00;63.90
49777;DHT22;35673;51.482;7.436;2023-07-22T20:38:54;21.00;65.30
49777;DHT22;35673;51.482;7.436;2023-07-22T20:41:19;21.20;66.80
49777;DHT22;35673;51.482;7.436;2023-07-22T20:43:45;21.10;66.80
49777;DHT22;35673;51.482;7.436;2023-07-22T20:46:10;21.10;66.30
49777;DHT22;35673;51.482;7.436;2023-07-22T20:48:36;20.90;65.90
49777;DHT22;35673;51.482;7.436;2023-07-22T20:51:01;21.10;66.10
49777;DHT22;35673;51.482;7.436;2023-07-22T20:53:26;20.80;66.50
49777;DHT22;35673;51.482;7.436;2023-07-22T20:56:00;20.90;67.00
49777;DHT22;35673;51.482;7.436;2023-07-22T20:58:26;20.90;66.70
49777;DHT22;35673;51.482;7.436;2023-07-22T21:00:52;20.60;67.30
49777;DHT22;35673;51.482;7.436;2023-07-22T21:03:18;20.60;68.20
49777;DHT22;35673;51.482;7.436;2023-07-22T21:05:51;20.80;69.70
49777;DHT22;35673;51.482;7.436;2023-07-22T21:08:17;20.70;69.60
49777;DHT22;35673;51.482;7.436;2023-07-22T21:10:42;20.70;69.70
49777;DHT22;35673;51.482;7.436;2023-07-22T21:13:08;20.70;70.60
49777;DHT22;35673;51.482;7.436;2023-07-22T21:15:33;20.70;67.00
49777;DHT22;35673;51.482;7.436;2023-07-22T21:17:59;20.40;71.30
49777;DHT22;35673;51.482;7.436;2023-07-22T21:20:26;20.40;71.50
49777;DHT22;35673;51.482;7.436;2023-07-22T21:22:52;20.30;69.10
49777;DHT22;35673;51.482;7.436;2023-07-22T21:25:17;20.50;71.60
49777;DHT22;35673;51.482;7.436;2023-07-22T21:27:43;20.40;71.30
49777;DHT22;35673;51.482;7.436;2023-07-22T21:30:08;20.50;71.80
49777;DHT22;35673;51.482;7.436;2023-07-22T21:32:34;20.40;71.40
49777;DHT22;35673;51.482;7.436;2023-07-22T21:34:59;20.40;71.50
49777;DHT22;35673;51.482;7.436;2023-07-22T21:37:25;20.40;71.70
49777;DHT22;35673;51.482;7.436;2023-07-22T21:39:50;20.40;72.00
49777;DHT22;35673;51.482;7.436;2023-07-22T21:42:16;20.70;72.60
49777;DHT22;35673;51.482;7.436;2023-07-22T21:44:43;20.70;72.50
49777;DHT22;35673;51.482;7.436;2023-07-22T21:47:09;20.50;72.50
49777;DHT22;35673;51.482;7.436;2023-07-22T21:49:34;20.30;71.30
49777;DHT22;35673;51.482;7.436;2023-07-22T21:52:00;20.60;73.40
49777;DHT22;35673;51.482;7.436;2023-07-22T21:54:25;20.50;73.60
49777;DHT22;35673;51.482;7.436;2023-07-22T21:56:51;20.30;74.30
49777;DHT22;35673;51.482;7.436;2023-07-22T21:59:16;20.20;74.20
49777;DHT22;35673;51.482;7.436;2023-07-22T22:01:42;20.20;74.60
49777;DHT22;35673;51.482;7.436;2023-07-22T22:04:07;20.30;74.80
49777;DHT22;35673;51.482;7.436;2023-07-22T22:06:33;20.20;73.00
49777;DHT22;35673;51.482;7.436;2023-07-22T22:08:58;20.30;75.40
49777;DHT22;35673;51.482;7.436;2023-07-22T22:11:24;20.10;75.50
49777;DHT22;35673;51.482;7.436;2023-07-22T22:13:49;20.00;75.60
49777;DHT22;35673;51.482;7.436;2023-07-22T22:16:15;20.00;75.90
49777;DHT22;35673;51.482;7.436;2023-07-22T22:18:40;20.10;76.70
49777;DHT22;35673;51.482;7.436;2023-07-22T22:21:05;20.00;77.10
49777;DHT22;35673;51.482;7.436;2023-07-22T22:23:31;20.30;77.70
49777;DHT22;35673;51.482;7.436;2023-07-22T22:25:56;20.10;77.00
49777;DHT22;35673;51.482;7.436;2023-07-22T22:28:22;20.10;77.80
49777;DHT22;35673;51.482;7.436;2023-07-22T22:30:48;20.10;78.20
49777;DHT22;35673;51.482;7.436;2023-07-22T22:33:14;19.90;77.10
49777;DHT22;35673;51.482;7.436;2023-07-22T22:35:40;19.90;76.90
49777;DHT22;35673;51.482;7.436;2023-07-22T22:38:06;19.90;77.10
49777;DHT22;35673;51.482;7.436;2023-07-22T22:40:32;20.00;76.80
49777;DHT22;35673;51.482;7.436;2023-07-22T22:42:58;19.80;77.20
49777;DHT22;35673;51.482;7.436;2023-07-22T22:45:24;19.90;77.70
49777;DHT22;35673;51.482;7.436;2023-07-22T22:47:49;19.80;78.00
49777;DHT22;35673;51.482;7.436;2023-07-22T22:50:15;19.70;78.90
49777;DHT22;35673;51.482;7.436;2023-07-22T22:52:40;19.70;79.10
49777;DHT22;35673;51.482;7.436;2023-07-22T22:55:06;19.90;79.20
49777;DHT22;35673;51.482;7.436;2023-07-22T22:57:31;19.70;79.00
49777;DHT22;35673;51.482;7.436;2023-07-22T22:59:57;19.90;79.40
49777;DHT22;35673;51.482;7.436;2023-07-22T23:02:22;19.70;79.50
49777;DHT22;35673;51.482;7.436;2023-07-22T23:04:48;19.60;80.00
49777;DHT22;35673;51.482;7.436;2023-07-22T23:07:13;19.80;80.50
49777;DHT22;35673;51.482;7.436;2023-07-22T23:09:39;19.60;80.20
49777;DHT22;35673;51.482;7.436;2023-07-22T23:12:04;19.60;81.10
49777;DHT22;35673;51.482;7.436;2023-07-22T23:14:30;19.80;80.60
49777;DHT22;35673;51.482;7.436;2023-07-22T23:16:57;19.60;80.50
49777;DHT22;35673;51.482;7.436;2023-07-22T23:19:22;19.60;79.50
49777;DHT22;35673;51.482;7.436;2023-07-22T23:21:48;19.60;79.90
49777;DHT22;35673;51.482;7.436;2023-07-22T23:24:13;19.60;79.80
49777;DHT22;35673;51.482;7.436;2023-07-22T23:26:39;19.60;80.60
49777;DHT22;35673;51.482;7.436;2023-07-22T23:29:04;19.70;80.80
49777;DHT22;35673;51.482;7.436;2023-07-22T23:31:30;19.90;80.60
49777;DHT22;35673;51.482;7.436;2023-07-22T23:33:55;19.50;81.00
49777;DHT22;35673;51.482;7.436;2023-07-22T23:36:21;19.60;81.10
49777;DHT22;35673;51.482;7.436;2023-07-22T23:38:46;19.50;81.00
49777;DHT22;35673;51.482;7.436;2023-07-22T23:41:11;19.60;81.50
49777;DHT22;35673;51.482;7.436;2023-07-22T23:43:37;19.70;81.00
49777;DHT22;35673;51.482;7.436;2023-07-22T23:46:02;19.50;81.60
49777;DHT22;35673;51.482;7.436;2023-07-22T23:48:28;19.60;81.70
49777;DHT22;35673;51.482;7.436;2023-07-22T23:50:53;19.60;81.90
49777;DHT22;35673;51.482;7.436;2023-07-22T23:53:19;19.60;82.00
49777;DHT22;35673;51.482;7.436;2023-07-22T23:55:45;19.40;82.90
49777;DHT22;35673;51.482;7.436;2023-07-22T23:58:10;19.60;82.60
